Aérodrome :
LOGIN :

S'inscrire | Disclaimer

   EN    FR    IT 

 










Légende :    VFR   VFR Marginal   IFR   IFR Intensif   IFR Très Intensif
Visi : 
Plafond : 
>= 8 km
>= 3000ft
5 à 8 km
1000 à 3000 ft
1500m à 5 km
500 à 1000 ft
800 à 1500m
200 à 500 ft
< 800m
< 200 ft
Symboles :   Orages  Brouillard  Fortes neiges  Fortes précipitations  Vent > 20 kt
SIGMETs :   Divers  Orages  Givrage  Turbulence  Onde Orograph.  Cendres Volcan.






- Altitude de l'aérodrome : 1036 ft
- Code IATA : ERF


EDDE - Erfurt

DERNIER METAR :
  • 242120Z 19005KT CAVOK 17/10 Q1002

METARs EXPIRÉS :
  • 242050Z 18005KT CAVOK 17/09 Q1002
  • 242020Z 19004KT CAVOK 17/09 Q1002
  • 241950Z 17005KT CAVOK 16/09 Q1003 NOSIG
  • 241920Z 18006KT CAVOK 17/09 Q1003 NOSIG
  • 241850Z 19006KT CAVOK 17/09 Q1003 NOSIG
  • 241820Z 18006KT CAVOK 18/09 Q1004 NOSIG

TAF TAF EDDE
Valide du 24 à 18h jusqu'au 25 à 18h UTC


241700Z 2418/2518 20007KT CAVOK
BECMG 2419/2423 RA
PROB30
TEMPO 2419/2421 TSRA BKN014CB
TEMPO 2421/2424 4000 +RA
BECMG 2500/2504 NSW
PROB30
TEMPO 2505/2510 SHRA BKN015CB
BECMG 2506/2509 26013KT
PROB30
TEMPO 2508/2514 27015G30KT
BECMG 2514/2517 25008KT



MET'MAP, la Météo Aéronautique d'un coup d'oeil ! - Copyright ORBIFLY Décembre 2007 - Disclaimer

ORBIFLY MET'MAP TEAM :

Programmation & Développement : Alexandra Zaïnal
Sur une idée originale de : Baudouin d'Aumeries
Assistance à la programmation : Marc-Olivier Méhu
Soutien technique & logistique : Manuel Goepfert

Contact : metmap@orbifly.com




SOURCES & CREDITS :

   NOAA